createdAt,value
2022-10-30T00:00:44.357Z,11.65
2022-10-30T00:01:38.853Z,11.62
2022-10-30T00:02:37.076Z,11.58
2022-10-30T00:03:47.394Z,11.56
2022-10-30T00:04:44.083Z,11.57
2022-10-30T00:05:40.835Z,11.59
2022-10-30T00:06:39.129Z,11.60
2022-10-30T00:07:46.249Z,11.59
2022-10-30T00:08:38.314Z,11.55
2022-10-30T00:09:37.818Z,11.49
2022-10-30T00:10:42.741Z,11.44
2022-10-30T00:11:36.963Z,11.38
2022-10-30T00:12:37.999Z,11.33
2022-10-30T00:13:49.913Z,11.31
2022-10-30T00:14:42.024Z,11.30
2022-10-30T00:15:40.658Z,11.32
2022-10-30T00:16:44.415Z,11.36
2022-10-30T00:17:39.868Z,11.41
2022-10-30T00:18:35.615Z,11.42
2022-10-30T00:19:36.492Z,11.42
2022-10-30T00:20:38.702Z,11.42
2022-10-30T02:23:09.375Z,11.44
2022-10-30T02:23:14.957Z,11.40
2022-10-30T02:24:14.968Z,11.30
2022-10-30T02:25:14.996Z,11.20
2022-10-30T02:26:14.855Z,11.11
2022-10-30T02:27:14.905Z,11.02
2022-10-30T02:28:14.889Z,10.94
2022-10-30T02:29:14.896Z,10.87
2022-10-30T02:30:14.800Z,10.80
2022-10-30T02:31:14.850Z,10.72
2022-10-30T02:32:14.786Z,10.64
2022-10-30T02:33:14.884Z,10.56
2022-10-30T02:34:14.917Z,10.49
2022-10-30T02:35:14.843Z,10.46
2022-10-30T02:36:14.795Z,10.46
2022-10-30T02:37:14.684Z,10.51
2022-10-30T02:38:14.758Z,10.56
2022-10-30T02:39:14.760Z,10.58
2022-10-30T02:40:14.761Z,10.58
2022-10-30T02:41:14.720Z,10.58
2022-10-30T02:42:14.746Z,10.57
2022-10-30T02:43:14.683Z,10.58
2022-10-30T02:44:14.602Z,10.60
2022-10-30T02:45:14.643Z,10.63
2022-10-30T02:46:14.662Z,10.66
2022-10-30T02:47:14.755Z,10.67
2022-10-30T02:48:14.630Z,10.64
2022-10-30T02:49:14.558Z,10.57
2022-10-30T02:50:14.595Z,10.49
2022-10-30T02:51:14.509Z,10.42
2022-10-30T02:52:14.561Z,10.38
2022-10-30T02:53:14.590Z,10.33
2022-10-30T02:54:14.521Z,10.28
2022-10-30T02:55:14.536Z,10.23
2022-10-30T02:56:14.531Z,10.21
2022-10-30T02:57:14.484Z,10.20
2022-10-30T02:58:14.457Z,10.18
2022-10-30T02:59:14.509Z,10.14
2022-10-30T03:00:14.458Z,10.09
2022-10-30T03:01:14.481Z,10.06
2022-10-30T03:02:14.563Z,10.05
2022-10-30T03:03:15.796Z,10.08
2022-10-30T03:04:14.442Z,10.11
2022-10-30T03:05:14.468Z,10.13
2022-10-30T03:06:14.343Z,10.14
2022-10-30T03:07:14.356Z,10.13
2022-10-30T03:08:14.267Z,10.12
2022-10-30T03:09:14.239Z,10.11
2022-10-30T03:10:14.236Z,10.10
2022-10-30T03:11:14.222Z,10.11
2022-10-30T03:12:14.224Z,10.12
2022-10-30T03:13:14.182Z,10.13
2022-10-30T03:14:14.168Z,10.12
2022-10-30T03:15:14.156Z,10.10
2022-10-30T03:16:14.161Z,10.07
2022-10-30T03:17:14.154Z,10.05
2022-10-30T03:18:14.138Z,10.04
2022-10-30T03:19:14.093Z,10.06
2022-10-30T03:20:14.084Z,10.12
2022-10-30T03:21:14.086Z,10.19
2022-10-30T03:22:14.080Z,10.25
2022-10-30T03:23:14.041Z,10.29
2022-10-30T03:24:14.032Z,10.32
2022-10-30T03:25:14.012Z,10.34
2022-10-30T03:26:14.000Z,10.34
2022-10-30T03:27:14.014Z,10.32
2022-10-30T03:28:14.013Z,10.31
2022-10-30T03:29:13.961Z,10.34
2022-10-30T03:30:13.949Z,10.38
2022-10-30T03:31:13.940Z,10.43
2022-10-30T03:32:14.088Z,10.46
2022-10-30T03:33:13.906Z,10.47
2022-10-30T03:34:13.927Z,10.46
2022-10-30T03:35:13.877Z,10.45
2022-10-30T03:36:13.866Z,10.42
2022-10-30T03:37:13.867Z,10.43
2022-10-30T03:38:13.873Z,10.44
2022-10-30T03:39:13.839Z,10.51
2022-10-30T03:40:13.816Z,10.62
2022-10-30T03:41:13.795Z,10.68
2022-10-30T03:42:13.814Z,10.75
2022-10-30T03:43:13.781Z,10.81
2022-10-30T03:44:13.760Z,10.82
2022-10-30T03:45:13.751Z,10.80
2022-10-30T03:46:13.753Z,10.77
2022-10-30T03:47:13.804Z,10.74
2022-10-30T03:48:13.735Z,10.72
2022-10-30T03:49:13.689Z,10.70
2022-10-30T03:50:13.687Z,10.68
2022-10-30T03:51:13.668Z,10.66
2022-10-30T03:52:13.685Z,10.69
2022-10-30T03:53:13.647Z,10.81
2022-10-30T03:54:13.642Z,10.98
2022-10-30T03:55:13.642Z,11.16
2022-10-30T03:56:13.618Z,11.29
2022-10-30T03:57:13.599Z,11.37
2022-10-30T03:58:13.594Z,11.42
2022-10-30T03:59:13.570Z,11.43
2022-10-30T04:00:13.577Z,11.44
2022-10-30T04:01:13.670Z,11.43
2022-10-30T04:02:13.693Z,11.41
2022-10-30T04:03:13.524Z,11.39
2022-10-30T04:04:13.555Z,11.37
2022-10-30T04:05:13.503Z,11.33
2022-10-30T04:06:13.507Z,11.28
2022-10-30T04:07:13.452Z,11.22
2022-10-30T04:08:13.464Z,11.18
2022-10-30T04:09:13.451Z,11.14
2022-10-30T04:10:14.941Z,11.12
2022-10-30T04:11:13.459Z,11.09
2022-10-30T04:12:13.424Z,11.07
2022-10-30T04:13:13.418Z,11.05
2022-10-30T04:14:13.373Z,11.04
2022-10-30T04:15:13.368Z,11.03
2022-10-30T04:16:13.409Z,11.03
2022-10-30T04:17:13.371Z,11.03
2022-10-30T04:18:13.332Z,11.03
2022-10-30T04:19:13.292Z,11.03
2022-10-30T04:20:13.281Z,11.03
2022-10-30T04:21:13.268Z,11.04
2022-10-30T04:22:13.288Z,11.07
2022-10-30T04:23:13.272Z,11.12
2022-10-30T04:24:13.254Z,11.16
2022-10-30T04:25:19.256Z,11.21
2022-10-30T04:26:13.217Z,11.25
2022-10-30T04:27:13.196Z,11.28
2022-10-30T04:28:13.195Z,11.28
2022-10-30T04:29:13.170Z,11.27
2022-10-30T04:30:13.170Z,11.25
2022-10-30T04:31:13.150Z,11.21
2022-10-30T04:32:13.128Z,11.17
2022-10-30T04:33:13.114Z,11.14
2022-10-30T04:34:13.108Z,11.11
2022-10-30T04:35:13.085Z,11.10
2022-10-30T04:36:13.084Z,11.09
2022-10-30T04:37:13.064Z,11.09
2022-10-30T04:38:13.065Z,11.09
2022-10-30T04:39:13.026Z,11.08
2022-10-30T04:40:13.036Z,11.08
2022-10-30T04:41:13.018Z,11.06
2022-10-30T04:42:12.986Z,11.05
2022-10-30T04:43:12.987Z,11.04
2022-10-30T04:44:13.003Z,11.03
2022-10-30T04:45:15.265Z,11.02
2022-10-30T04:46:12.952Z,11.02
2022-10-30T04:47:12.951Z,11.02
2022-10-30T04:48:12.954Z,11.02
2022-10-30T04:49:12.920Z,11.02
2022-10-30T04:50:12.879Z,11.03
2022-10-30T04:51:12.883Z,11.04
2022-10-30T04:52:12.870Z,11.05
2022-10-30T04:53:12.855Z,11.05
2022-10-30T04:54:12.860Z,11.05
2022-10-30T04:55:12.809Z,11.04
2022-10-30T04:56:12.818Z,11.03
2022-10-30T04:57:12.785Z,11.02
2022-10-30T04:58:12.778Z,10.99
2022-10-30T04:59:12.781Z,10.97
2022-10-30T05:00:12.755Z,10.96
2022-10-30T05:01:12.928Z,10.96
2022-10-30T05:02:12.913Z,10.97
2022-10-30T05:03:12.727Z,11.00
2022-10-30T05:04:12.705Z,11.02
2022-10-30T05:05:12.690Z,11.03
2022-10-30T05:06:12.670Z,11.04
2022-10-30T05:07:12.690Z,11.05
2022-10-30T05:08:12.640Z,11.05
2022-10-30T05:09:12.625Z,11.05
2022-10-30T05:10:12.624Z,11.05
2022-10-30T05:11:12.612Z,11.03
2022-10-30T05:12:12.599Z,11.01
2022-10-30T05:13:12.596Z,11.00
2022-10-30T05:14:12.572Z,11.00
2022-10-30T05:15:12.570Z,10.99
2022-10-30T05:16:12.536Z,10.99
2022-10-30T05:17:12.561Z,10.98
2022-10-30T05:18:12.513Z,10.97
2022-10-30T05:19:12.541Z,10.96
2022-10-30T05:20:14.888Z,10.96
2022-10-30T05:21:12.496Z,10.96
2022-10-30T05:22:12.450Z,10.94
2022-10-30T05:23:12.468Z,10.93
2022-10-30T05:24:12.438Z,10.91
2022-10-30T05:25:12.446Z,10.88
2022-10-30T05:26:12.518Z,10.87
2022-10-30T05:27:12.413Z,10.86
2022-10-30T05:28:12.480Z,10.85
2022-10-30T05:29:12.383Z,10.86
2022-10-30T05:30:12.358Z,10.90
2022-10-30T05:31:12.338Z,10.93
2022-10-30T05:33:12.331Z,10.95
2022-10-30T05:34:12.292Z,10.95
2022-10-30T05:35:12.329Z,10.94
2022-10-30T05:36:12.279Z,10.94
2022-10-30T05:37:12.256Z,10.95
2022-10-30T05:38:12.260Z,10.96
2022-10-30T05:39:12.232Z,10.98
2022-10-30T05:40:12.228Z,11.00
2022-10-30T05:41:12.225Z,11.00
2022-10-30T05:42:13.894Z,11.02
2022-10-30T05:43:12.198Z,11.05
2022-10-30T05:44:12.175Z,11.08
2022-10-30T05:45:12.163Z,11.11
2022-10-30T05:46:12.155Z,11.11
2022-10-30T05:47:12.137Z,11.13
2022-10-30T05:48:12.166Z,11.16
2022-10-30T05:49:12.208Z,11.21
2022-10-30T05:50:12.085Z,11.26
2022-10-30T05:51:12.113Z,11.30
2022-10-30T05:52:12.186Z,11.33
2022-10-30T05:53:12.087Z,11.35
2022-10-30T05:54:12.161Z,11.37
2022-10-30T05:55:12.078Z,11.38
2022-10-30T05:56:12.009Z,11.39
2022-10-30T05:57:12.009Z,11.39
2022-10-30T05:58:12.055Z,11.39
2022-10-30T05:59:11.990Z,11.39
2022-10-30T06:00:12.065Z,11.40
2022-10-30T06:01:12.025Z,11.41
2022-10-30T06:02:12.014Z,11.42
2022-10-30T06:03:11.958Z,11.43
2022-10-30T06:04:11.996Z,11.44
2022-10-30T06:05:11.989Z,11.44
2022-10-30T06:06:11.973Z,11.45
2022-10-30T06:07:11.867Z,11.45
2022-10-30T06:08:12.726Z,11.46
2022-10-30T06:09:11.963Z,11.47
2022-10-30T06:10:11.885Z,11.48
2022-10-30T06:11:12.069Z,11.49
2022-10-30T06:12:11.888Z,11.49
2022-10-30T06:13:11.908Z,11.51
2022-10-30T06:14:11.772Z,11.53
2022-10-30T06:15:11.751Z,11.55
2022-10-30T06:16:11.832Z,11.58
2022-10-30T06:17:11.765Z,11.61
2022-10-30T06:18:11.725Z,11.62
2022-10-30T06:19:17.251Z,11.61
2022-10-30T06:20:11.727Z,11.60
2022-10-30T06:21:11.738Z,11.60
2022-10-30T06:22:11.692Z,11.61
2022-10-30T06:23:11.655Z,11.62
2022-10-30T06:24:11.689Z,11.63
2022-10-30T06:25:11.639Z,11.65
2022-10-30T06:26:11.599Z,11.66
2022-10-30T06:27:11.629Z,11.66
2022-10-30T06:28:11.599Z,11.67
2022-10-30T06:29:11.584Z,11.67
2022-10-30T06:30:11.612Z,11.67
2022-10-30T06:31:11.644Z,11.68
2022-10-30T06:32:11.564Z,11.70
2022-10-30T06:33:11.535Z,11.71
2022-10-30T06:34:11.516Z,11.72
2022-10-30T06:35:11.544Z,11.72
2022-10-30T06:36:11.516Z,11.73
2022-10-30T06:37:11.515Z,11.73
2022-10-30T06:38:11.467Z,11.73
2022-10-30T06:39:11.456Z,11.73
2022-10-30T06:40:11.425Z,11.73
2022-10-30T06:41:11.457Z,11.75
2022-10-30T06:42:11.392Z,11.77
2022-10-30T06:43:11.404Z,11.77
2022-10-30T06:44:11.395Z,11.78
2022-10-30T06:45:11.400Z,11.78
2022-10-30T06:46:11.358Z,11.79
2022-10-30T06:47:11.321Z,11.80
2022-10-30T06:48:11.330Z,11.81
2022-10-30T06:49:11.314Z,11.82
2022-10-30T06:50:11.346Z,11.83
2022-10-30T06:51:11.295Z,11.83
2022-10-30T06:52:11.267Z,11.83
2022-10-30T06:53:11.251Z,11.85
2022-10-30T06:54:11.280Z,11.87
2022-10-30T06:55:11.241Z,11.88
2022-10-30T06:56:11.199Z,11.89
2022-10-30T06:57:11.192Z,11.91
2022-10-30T06:58:11.190Z,11.93
2022-10-30T06:59:11.169Z,11.95
2022-10-30T07:00:11.173Z,11.96
2022-10-30T07:01:11.144Z,11.96
2022-10-30T07:02:11.503Z,11.96
2022-10-30T07:03:11.119Z,11.97
2022-10-30T07:04:11.110Z,12.00
2022-10-30T07:05:11.126Z,12.05
2022-10-30T07:06:11.064Z,12.09
2022-10-30T07:07:11.064Z,12.14
2022-10-30T07:08:11.057Z,12.17
2022-10-30T07:09:11.035Z,12.21
2022-10-30T07:10:11.013Z,12.24
2022-10-30T07:11:11.015Z,12.28
2022-10-30T07:12:11.015Z,12.30
2022-10-30T07:13:10.981Z,12.31
2022-10-30T07:14:11.371Z,12.32
2022-10-30T07:15:10.955Z,12.34
2022-10-30T07:16:11.035Z,12.36
2022-10-30T07:17:10.954Z,12.38
2022-10-30T07:18:10.911Z,12.41
2022-10-30T07:19:10.925Z,12.44
2022-10-30T07:20:10.932Z,12.46
2022-10-30T07:21:10.898Z,12.49
2022-10-30T07:22:10.872Z,12.52
2022-10-30T07:23:10.864Z,12.55
2022-10-30T07:24:10.833Z,12.57
2022-10-30T07:25:10.860Z,12.59
2022-10-30T07:26:10.824Z,12.61
2022-10-30T07:27:10.818Z,12.63
2022-10-30T07:28:10.827Z,12.64
2022-10-30T07:29:10.773Z,12.66
2022-10-30T07:30:10.820Z,12.68
2022-10-30T07:31:10.763Z,12.71
2022-10-30T07:32:10.730Z,12.73
2022-10-30T07:33:10.723Z,12.75
2022-10-30T07:34:10.731Z,12.76
2022-10-30T07:35:10.718Z,12.75
2022-10-30T07:36:10.712Z,12.76
2022-10-30T07:37:10.679Z,12.77
2022-10-30T07:38:10.716Z,12.78
2022-10-30T07:39:10.647Z,12.79
2022-10-30T07:40:12.888Z,12.79
2022-10-30T07:41:10.618Z,12.80
2022-10-30T07:42:10.626Z,12.81
2022-10-30T07:43:10.601Z,12.82
2022-10-30T07:44:10.575Z,12.84
2022-10-30T07:46:10.567Z,12.88
2022-10-30T07:47:10.554Z,12.91
2022-10-30T07:48:10.541Z,12.95
2022-10-30T07:49:10.547Z,12.97
2022-10-30T07:50:10.514Z,13.00
2022-10-30T07:51:10.526Z,13.02
2022-10-30T07:52:16.171Z,13.06
2022-10-30T07:53:10.539Z,13.13
2022-10-30T07:54:10.473Z,13.20
2022-10-30T07:55:10.437Z,13.29
2022-10-30T07:56:10.432Z,13.40
2022-10-30T07:57:10.460Z,13.52
2022-10-30T07:58:10.399Z,13.63
2022-10-30T07:59:10.401Z,13.72
2022-10-30T08:00:10.397Z,13.82
2022-10-30T08:01:10.382Z,13.93
2022-10-30T08:02:10.557Z,14.09
2022-10-30T08:03:10.363Z,14.33
2022-10-30T08:04:10.324Z,14.64
2022-10-30T08:05:10.306Z,14.97
2022-10-30T08:06:10.312Z,15.27
2022-10-30T08:07:10.283Z,15.58
2022-10-30T08:08:10.287Z,15.87
2022-10-30T08:09:10.270Z,15.98
2022-10-30T08:10:10.230Z,15.90
2022-10-30T08:11:10.235Z,15.67
2022-10-30T08:12:10.218Z,15.37
2022-10-30T08:13:10.268Z,15.10
2022-10-30T08:14:10.203Z,14.88
2022-10-30T08:15:10.172Z,14.72
2022-10-30T08:16:10.169Z,14.59
2022-10-30T08:17:10.146Z,14.49
2022-10-30T08:18:10.197Z,14.41
2022-10-30T08:19:10.138Z,14.36
2022-10-30T08:20:10.110Z,14.32
2022-10-30T08:21:10.118Z,14.28
2022-10-30T08:22:10.092Z,14.27
2022-10-30T08:23:10.092Z,14.30
2022-10-30T08:24:10.069Z,14.35
2022-10-30T08:25:10.100Z,14.42
2022-10-30T08:26:10.023Z,14.53
2022-10-30T08:27:10.045Z,14.70
2022-10-30T08:28:10.038Z,14.96
2022-10-30T08:29:10.021Z,15.33
2022-10-30T08:30:09.999Z,15.78
2022-10-30T08:31:09.982Z,16.21
2022-10-30T08:32:09.945Z,16.57
2022-10-30T08:33:09.950Z,16.95
2022-10-30T08:34:09.947Z,17.36
2022-10-30T08:35:09.923Z,17.81
2022-10-30T08:36:09.903Z,18.27
2022-10-30T08:37:09.901Z,18.67
2022-10-30T08:38:09.879Z,18.98
2022-10-30T08:39:09.873Z,19.04
2022-10-30T08:40:09.852Z,18.91
2022-10-30T08:41:09.843Z,18.71
2022-10-30T08:42:09.853Z,18.56
2022-10-30T08:43:09.824Z,18.53
2022-10-30T08:44:09.784Z,18.61
2022-10-30T08:45:09.794Z,18.77
2022-10-30T08:46:09.841Z,18.94
2022-10-30T08:47:09.820Z,19.00
2022-10-30T08:48:09.736Z,19.01
2022-10-30T08:49:09.766Z,18.87
2022-10-30T08:50:09.740Z,18.55
2022-10-30T08:51:09.717Z,18.37
2022-10-30T08:52:09.712Z,18.43
2022-10-30T08:53:09.676Z,18.52
2022-10-30T08:54:09.653Z,18.71
2022-10-30T08:55:09.641Z,18.97
2022-10-30T08:56:09.627Z,19.15
2022-10-30T08:57:09.638Z,19.13
2022-10-30T08:58:09.673Z,18.93
2022-10-30T08:59:09.689Z,18.62
2022-10-30T09:00:09.586Z,18.49
2022-10-30T09:01:09.669Z,18.51
2022-10-30T09:02:09.660Z,18.38
2022-10-30T09:03:10.030Z,18.13
2022-10-30T09:04:09.536Z,17.90
2022-10-30T09:05:09.593Z,17.74
2022-10-30T09:06:09.507Z,17.64
2022-10-30T09:07:12.092Z,17.46
2022-10-30T09:08:09.504Z,17.23
2022-10-30T09:09:09.486Z,17.11
2022-10-30T09:10:09.491Z,17.25
2022-10-30T09:11:09.452Z,17.58
2022-10-30T09:12:09.432Z,18.03
2022-10-30T09:13:09.422Z,18.41
2022-10-30T09:14:09.406Z,18.60
2022-10-30T09:15:09.381Z,18.77
2022-10-30T09:16:09.399Z,18.96
2022-10-30T09:17:09.355Z,19.18
2022-10-30T09:18:09.358Z,19.51
2022-10-30T09:19:09.342Z,19.96
2022-10-30T09:20:09.314Z,20.46
2022-10-30T09:21:09.305Z,20.84
2022-10-30T09:22:09.288Z,20.91
2022-10-30T09:23:09.302Z,20.71
2022-10-30T09:24:09.272Z,20.64
2022-10-30T09:25:09.867Z,20.72
2022-10-30T09:26:09.629Z,20.84
2022-10-30T09:27:09.721Z,21.07
2022-10-30T09:28:09.436Z,21.27
2022-10-30T09:29:09.856Z,21.43
2022-10-30T09:30:09.655Z,21.56
2022-10-30T09:31:09.414Z,21.59
2022-10-30T09:32:09.290Z,21.43
2022-10-30T09:33:09.582Z,21.18
2022-10-30T09:34:09.632Z,21.14
2022-10-30T09:35:09.785Z,21.27
2022-10-30T09:36:09.130Z,21.38
2022-10-30T09:37:09.217Z,21.41
2022-10-30T09:38:09.183Z,21.50
2022-10-30T09:39:09.076Z,21.78
2022-10-30T09:40:09.050Z,22.15
2022-10-30T09:41:09.440Z,22.42
2022-10-30T09:42:09.148Z,22.56
2022-10-30T09:43:09.274Z,22.73
2022-10-30T09:44:09.310Z,22.80
2022-10-30T09:45:27.883Z,22.63
2022-10-30T09:46:09.122Z,22.28
2022-10-30T09:47:09.050Z,21.76
2022-10-30T09:48:08.946Z,21.27
2022-10-30T09:50:09.682Z,21.11
2022-10-30T09:51:09.279Z,21.38
2022-10-30T09:52:08.900Z,21.71
2022-10-30T09:53:08.900Z,22.00
2022-10-30T09:54:08.897Z,22.20
2022-10-30T09:55:08.889Z,22.31
2022-10-30T09:56:08.942Z,22.41
2022-10-30T09:57:09.402Z,22.53
2022-10-30T09:58:08.967Z,22.61
2022-10-30T09:59:08.870Z,22.67
2022-10-30T10:00:09.269Z,22.43
2022-10-30T10:01:08.851Z,21.91
2022-10-30T10:02:08.957Z,21.48
2022-10-30T10:03:08.806Z,21.33
2022-10-30T10:04:08.846Z,21.49
2022-10-30T10:05:09.488Z,21.81
2022-10-30T10:06:09.147Z,22.20
2022-10-30T10:07:08.877Z,22.60
2022-10-30T10:08:09.485Z,22.86
2022-10-30T10:09:08.792Z,23.03
2022-10-30T10:10:08.864Z,23.24
2022-10-30T10:11:09.010Z,23.45
2022-10-30T10:12:08.874Z,23.60
2022-10-30T10:13:09.645Z,23.74
2022-10-30T10:14:08.737Z,23.83
2022-10-30T10:15:08.635Z,23.91
2022-10-30T10:16:08.722Z,23.88
2022-10-30T10:17:08.598Z,23.65
2022-10-30T10:18:08.586Z,23.45
2022-10-30T10:19:08.554Z,23.32
2022-10-30T10:20:08.552Z,23.16
2022-10-30T10:21:09.281Z,22.89
2022-10-30T10:22:08.517Z,22.71
2022-10-30T10:23:08.514Z,22.71
2022-10-30T10:24:09.041Z,22.88
2022-10-30T10:25:12.520Z,23.11
2022-10-30T10:26:09.003Z,23.19
2022-10-30T10:27:08.451Z,23.18
2022-10-30T10:28:08.516Z,23.11
2022-10-30T10:29:08.800Z,23.09
2022-10-30T10:30:08.906Z,23.13
2022-10-30T10:31:08.875Z,23.21
2022-10-30T10:32:09.233Z,23.38
2022-10-30T10:33:08.902Z,23.47
2022-10-30T10:34:08.415Z,23.51
2022-10-30T10:35:08.479Z,23.65
2022-10-30T10:36:08.497Z,23.84
2022-10-30T10:37:08.333Z,24.02
2022-10-30T10:38:08.457Z,24.02
2022-10-30T10:39:08.301Z,23.88
2022-10-30T10:40:08.437Z,23.80
2022-10-30T10:41:09.067Z,23.79
2022-10-30T10:42:08.392Z,23.79
2022-10-30T10:43:08.259Z,23.78
2022-10-30T10:44:08.222Z,23.74
2022-10-30T10:45:08.354Z,23.78
2022-10-30T10:46:08.238Z,23.92
2022-10-30T10:47:08.237Z,24.09
2022-10-30T10:48:08.442Z,24.11
2022-10-30T10:49:08.533Z,23.90
2022-10-30T10:50:10.010Z,23.60
2022-10-30T10:51:08.273Z,23.26
2022-10-30T10:52:08.175Z,22.93
2022-10-30T10:53:08.123Z,22.72
2022-10-30T10:54:08.110Z,22.53
2022-10-30T10:55:08.071Z,22.30
2022-10-30T10:56:08.452Z,22.02
2022-10-30T10:57:08.837Z,21.80
2022-10-30T10:58:08.056Z,21.69
2022-10-30T10:59:08.037Z,21.62
2022-10-30T11:00:08.028Z,21.64
2022-10-30T11:01:08.450Z,21.77
2022-10-30T11:02:08.208Z,21.92
2022-10-30T11:03:08.659Z,21.98
2022-10-30T11:04:09.028Z,21.94
2022-10-30T11:05:07.995Z,21.82
2022-10-30T11:06:08.487Z,21.70
2022-10-30T11:07:08.487Z,21.64
2022-10-30T11:08:07.917Z,21.68
2022-10-30T11:09:08.422Z,21.81
2022-10-30T11:10:07.899Z,21.96
2022-10-30T11:11:08.148Z,22.11
2022-10-30T11:12:08.534Z,22.31
2022-10-30T11:13:07.844Z,22.51
2022-10-30T11:14:07.839Z,22.60
2022-10-30T11:15:07.825Z,22.67
2022-10-30T11:16:07.848Z,22.71
2022-10-30T11:17:07.805Z,22.77
2022-10-30T11:18:07.842Z,22.87
2022-10-30T11:19:07.798Z,23.01
2022-10-30T11:20:07.787Z,23.18
2022-10-30T11:21:07.753Z,23.29
2022-10-30T11:22:07.762Z,23.31
2022-10-30T11:23:07.742Z,23.37
2022-10-30T11:24:07.754Z,23.53
2022-10-30T11:25:07.693Z,23.65
2022-10-30T11:26:07.697Z,23.63
2022-10-30T11:27:07.675Z,23.62
2022-10-30T11:28:07.680Z,23.63
2022-10-30T11:29:07.683Z,23.61
2022-10-30T11:30:07.641Z,23.61
2022-10-30T11:31:07.723Z,23.60
2022-10-30T11:32:07.763Z,23.53
2022-10-30T11:33:07.607Z,23.59
2022-10-30T11:34:07.624Z,23.86
2022-10-30T11:35:07.581Z,24.14
2022-10-30T11:36:11.501Z,24.31
2022-10-30T11:37:07.550Z,24.40
2022-10-30T11:38:07.627Z,24.45
2022-10-30T11:39:07.542Z,24.49
2022-10-30T11:40:08.301Z,24.46
2022-10-30T11:41:08.677Z,24.32
2022-10-30T11:42:07.507Z,24.27
2022-10-30T11:43:07.474Z,24.30
2022-10-30T11:44:08.238Z,24.37
2022-10-30T11:45:07.440Z,24.43
2022-10-30T11:46:07.584Z,24.41
2022-10-30T11:47:07.630Z,24.35
2022-10-30T11:48:13.417Z,24.29
2022-10-30T11:49:08.030Z,24.13
2022-10-30T11:50:07.904Z,23.92
2022-10-30T11:51:07.482Z,23.76
2022-10-30T11:52:07.608Z,23.64
2022-10-30T11:53:08.384Z,23.56
2022-10-30T11:54:07.473Z,23.58
2022-10-30T11:55:07.313Z,23.67
2022-10-30T11:56:07.584Z,23.76
2022-10-30T11:57:07.709Z,23.88
2022-10-30T11:58:07.720Z,24.04
2022-10-30T11:59:07.320Z,24.31
2022-10-30T12:00:07.273Z,24.64
2022-10-30T12:01:07.255Z,24.78
2022-10-30T12:02:07.535Z,24.85
2022-10-30T12:03:07.350Z,24.96
2022-10-30T12:04:07.345Z,24.96
2022-10-30T12:05:07.209Z,24.90
2022-10-30T12:06:07.325Z,24.90
2022-10-30T12:07:07.206Z,24.78
2022-10-30T12:08:07.139Z,24.57
2022-10-30T12:09:07.217Z,24.45
2022-10-30T12:10:07.120Z,24.56
2022-10-30T12:11:07.114Z,24.75
2022-10-30T12:12:07.107Z,24.79
2022-10-30T12:13:07.111Z,24.71
2022-10-30T12:14:07.078Z,24.49
2022-10-30T12:15:07.068Z,24.22
2022-10-30T12:16:07.036Z,24.00
2022-10-30T12:17:07.018Z,23.70
2022-10-30T12:18:07.024Z,23.38
2022-10-30T12:19:07.012Z,23.14
2022-10-30T12:20:07.001Z,22.95
2022-10-30T12:21:06.979Z,22.76
2022-10-30T12:22:09.787Z,22.52
2022-10-30T12:23:06.953Z,22.29
2022-10-30T12:24:07.003Z,22.12
2022-10-30T12:25:06.968Z,22.04
2022-10-30T12:26:06.924Z,21.98
2022-10-30T12:27:06.904Z,21.94
2022-10-30T12:28:06.894Z,21.90
2022-10-30T12:29:06.860Z,21.85
2022-10-30T12:30:09.303Z,21.84
2022-10-30T12:31:06.852Z,21.83
2022-10-30T12:32:06.838Z,21.82
2022-10-30T12:33:06.820Z,21.80
2022-10-30T12:34:06.849Z,21.73
2022-10-30T12:35:06.798Z,21.63
2022-10-30T12:36:06.807Z,21.54
2022-10-30T12:37:06.777Z,21.46
2022-10-30T12:38:06.754Z,21.44
2022-10-30T12:39:06.863Z,21.41
2022-10-30T12:40:06.723Z,21.40
2022-10-30T12:41:06.710Z,21.45
2022-10-30T12:42:06.711Z,21.57
2022-10-30T12:43:06.690Z,21.67
2022-10-30T12:44:06.701Z,21.73
2022-10-30T12:45:06.673Z,21.72
2022-10-30T12:46:06.674Z,21.67
2022-10-30T12:47:06.674Z,21.63
2022-10-30T12:48:06.634Z,21.61
2022-10-30T12:49:06.607Z,21.59
2022-10-30T12:50:06.633Z,21.58
2022-10-30T12:51:06.587Z,21.56
2022-10-30T12:52:06.570Z,21.59
2022-10-30T12:53:06.556Z,21.67
2022-10-30T12:54:06.551Z,21.79
2022-10-30T12:55:06.529Z,21.89
2022-10-30T12:56:06.529Z,21.93
2022-10-30T12:57:06.524Z,21.93
2022-10-30T12:58:06.533Z,21.97
2022-10-30T12:59:06.488Z,22.15
2022-10-30T13:00:06.492Z,22.52
2022-10-30T13:01:06.467Z,22.97
2022-10-30T13:02:06.553Z,23.44
2022-10-30T13:03:06.434Z,23.86
2022-10-30T13:04:06.435Z,24.13
2022-10-30T13:05:06.408Z,24.31
2022-10-30T13:06:06.416Z,24.41
2022-10-30T13:07:06.469Z,24.52
2022-10-30T13:08:06.372Z,24.69
2022-10-30T13:09:06.367Z,24.86
2022-10-30T13:10:06.345Z,25.00
2022-10-30T13:11:06.315Z,25.14
2022-10-30T13:12:06.510Z,25.29
2022-10-30T13:13:06.284Z,25.45
2022-10-30T13:14:06.316Z,25.55
2022-10-30T13:15:06.262Z,25.56
2022-10-30T13:16:06.264Z,25.56
2022-10-30T13:17:06.234Z,25.58
2022-10-30T13:18:06.244Z,25.48
2022-10-30T13:19:06.230Z,25.40
2022-10-30T13:20:06.229Z,25.41
2022-10-30T13:21:06.197Z,25.43
2022-10-30T13:22:06.361Z,25.47
2022-10-30T13:23:06.190Z,25.44
2022-10-30T13:24:06.146Z,25.38
2022-10-30T13:25:06.129Z,25.36
2022-10-30T13:26:06.143Z,25.32
2022-10-30T13:27:06.174Z,25.25
2022-10-30T13:28:06.113Z,25.22
2022-10-30T13:29:06.098Z,25.11
2022-10-30T13:30:06.096Z,24.95
2022-10-30T13:31:06.056Z,24.71
2022-10-30T13:32:06.056Z,24.33
2022-10-30T13:33:06.047Z,23.97
2022-10-30T13:34:06.034Z,23.78
2022-10-30T13:35:06.011Z,23.76
2022-10-30T13:36:05.987Z,23.85
2022-10-30T13:37:06.019Z,23.92
2022-10-30T13:38:05.970Z,23.99
2022-10-30T13:39:05.957Z,24.01
2022-10-30T13:40:05.940Z,23.86
2022-10-30T13:41:05.941Z,23.69
2022-10-30T13:42:05.939Z,23.52
2022-10-30T13:43:05.933Z,23.33
2022-10-30T13:44:05.912Z,23.16
2022-10-30T13:45:05.899Z,23.06
2022-10-30T13:46:05.880Z,23.00
2022-10-30T13:47:05.862Z,22.96
2022-10-30T13:48:05.864Z,22.88
2022-10-30T13:49:05.832Z,22.74
2022-10-30T13:50:05.804Z,22.56
2022-10-30T13:51:05.808Z,22.39
2022-10-30T13:52:05.785Z,22.21
2022-10-30T13:53:05.794Z,22.02
2022-10-30T13:54:05.771Z,21.83
2022-10-30T13:55:05.751Z,21.63
2022-10-30T13:56:05.726Z,21.46
2022-10-30T13:57:05.733Z,21.36
2022-10-30T13:58:05.701Z,21.29
2022-10-30T13:59:05.724Z,21.22
2022-10-30T14:00:05.671Z,21.16
2022-10-30T14:01:05.742Z,21.11
2022-10-30T14:02:05.781Z,21.07
2022-10-30T14:03:05.686Z,21.04
2022-10-30T14:04:05.686Z,21.00
2022-10-30T14:05:05.640Z,20.95
2022-10-30T14:06:05.667Z,20.92
2022-10-30T14:07:05.600Z,20.89
2022-10-30T14:08:06.451Z,20.86
2022-10-30T14:09:05.585Z,20.83
2022-10-30T14:10:05.541Z,20.80
2022-10-30T14:11:05.584Z,20.77
2022-10-30T14:12:05.528Z,20.75
2022-10-30T14:13:05.529Z,20.72
2022-10-30T14:14:05.510Z,20.67
2022-10-30T14:15:05.482Z,20.63
2022-10-30T14:16:05.472Z,20.61
2022-10-30T14:17:05.485Z,20.59
2022-10-30T14:18:05.452Z,20.57
2022-10-30T14:19:05.431Z,20.53
2022-10-30T14:20:10.550Z,20.49
2022-10-30T14:21:05.425Z,20.43
2022-10-30T14:22:05.388Z,20.38
2022-10-30T14:23:05.399Z,20.33
2022-10-30T14:24:05.367Z,20.28
2022-10-30T14:25:05.367Z,20.22
2022-10-30T14:26:05.345Z,20.16
2022-10-30T14:27:05.330Z,20.09
2022-10-30T14:28:05.313Z,20.03
2022-10-30T14:29:05.313Z,19.97
2022-10-30T14:30:05.282Z,19.91
2022-10-30T14:31:05.273Z,19.89
2022-10-30T14:32:05.279Z,19.88
2022-10-30T14:33:05.258Z,19.86
2022-10-30T14:34:05.238Z,19.85
2022-10-30T14:35:05.252Z,19.82
2022-10-30T14:36:05.209Z,19.80
2022-10-30T14:37:05.205Z,19.77
2022-10-30T14:38:05.194Z,19.74
2022-10-30T14:39:05.287Z,19.69
2022-10-30T14:40:05.147Z,19.65
2022-10-30T14:41:07.109Z,19.61
2022-10-30T14:42:05.126Z,19.58
2022-10-30T14:43:05.161Z,19.55
2022-10-30T14:44:05.114Z,19.51
2022-10-30T14:45:05.117Z,19.45
2022-10-30T14:46:05.104Z,19.38
2022-10-30T14:47:05.081Z,19.32
2022-10-30T14:48:05.055Z,19.26
2022-10-30T14:49:05.032Z,19.20
2022-10-30T14:50:05.015Z,19.12
2022-10-30T14:51:05.031Z,19.05
2022-10-30T14:52:04.994Z,18.98
2022-10-30T14:53:04.993Z,18.92
2022-10-30T14:54:04.971Z,18.85
2022-10-30T14:55:04.955Z,18.79
2022-10-30T14:56:05.051Z,18.75